Alix, Canada
Current Conditions -  °F | °C
As of 9:00 PM on Wednesday 22 Oct 2014 (Local Time) from CYQF Reporting Station
Scattered Clouds Scattered Clouds  
Wind Chill: 39°   Ceiling: Unl
Heat Index: 43°   Visibility: 15mi
Dew Point: 30°   Wind: 6mph
Humidity: 61%   Direction: 180°S
Pressure: 29.58"   Gusts: NA
Location:  52.4°N, 113.18°W
Report Text: CYQF 230300Z 18005KT 15SM SCT220 06/M01 A2958 RMK CI4 SLP050
Loading
Personal Weather Stations






























Interactive Weather Map
Tropical Storm Tracking
New forecast layout! Learn more

10-Day Weather Forecast

Advertisements
Track Severe Weather on mobile